sensor_id;sensor_type;location;lat;lon;timestamp;pressure;altitude;pressure_sealevel;temperature;humidity
44457;BME280;30159;49.316;8.558;2023-07-31T00:02:07;100358.69;;;20.05;86.16
44457;BME280;30159;49.316;8.558;2023-07-31T00:04:33;100364.72;;;20.10;86.17
44457;BME280;30159;49.316;8.558;2023-07-31T00:07:01;100368.69;;;20.13;85.34
44457;BME280;30159;49.316;8.558;2023-07-31T00:09:29;100364.78;;;20.14;84.65
44457;BME280;30159;49.316;8.558;2023-07-31T00:11:56;100361.28;;;20.13;84.07
44457;BME280;30159;49.316;8.558;2023-07-31T00:14:22;100360.72;;;20.08;83.97
44457;BME280;30159;49.316;8.558;2023-07-31T00:16:49;100362.41;;;20.12;83.65
44457;BME280;30159;49.316;8.558;2023-07-31T00:19:15;100352.03;;;20.06;83.32
44457;BME280;30159;49.316;8.558;2023-07-31T00:21:42;100246.94;;;19.45;82.97
44457;BME280;30159;49.316;8.558;2023-07-31T00:24:10;100351.56;;;20.16;83.74
44457;BME280;30159;49.316;8.558;2023-07-31T00:26:36;100343.81;;;20.06;84.05
44457;BME280;30159;49.316;8.558;2023-07-31T00:29:03;100338.22;;;20.14;84.46
44457;BME280;30159;49.316;8.558;2023-07-31T00:31:30;100351.56;;;20.16;84.81
44457;BME280;30159;49.316;8.558;2023-07-31T00:33:56;100347.13;;;20.11;85.29
44457;BME280;30159;49.316;8.558;2023-07-31T00:36:23;100341.75;;;20.15;83.45
44457;BME280;30159;49.316;8.558;2023-07-31T00:38:49;100337.19;;;20.07;84.21
44457;BME280;30159;49.316;8.558;2023-07-31T00:41:17;100343.59;;;20.11;83.58
44457;BME280;30159;49.316;8.558;2023-07-31T00:43:44;100346.56;;;20.06;84.15
44457;BME280;30159;49.316;8.558;2023-07-31T00:46:10;100181.75;;;18.98;83.49
44457;BME280;30159;49.316;8.558;2023-07-31T00:48:38;100341.34;;;20.00;84.05
44457;BME280;30159;49.316;8.558;2023-07-31T00:51:06;100343.03;;;19.93;84.60
44457;BME280;30159;49.316;8.558;2023-07-31T00:53:33;100344.97;;;19.92;84.38
44457;BME280;30159;49.316;8.558;2023-07-31T00:56:00;100330.84;;;19.90;85.36
44457;BME280;30159;49.316;8.558;2023-07-31T00:58:28;100335.50;;;19.90;85.93
44457;BME280;30159;49.316;8.558;2023-07-31T01:00:54;100331.78;;;19.82;86.26
44457;BME280;30159;49.316;8.558;2023-07-31T01:03:21;100326.50;;;19.89;85.38
44457;BME280;30159;49.316;8.558;2023-07-31T01:05:56;100161.03;;;18.85;84.62
44457;BME280;30159;49.316;8.558;2023-07-31T01:08:33;100327.63;;;19.88;85.61
44457;BME280;30159;49.316;8.558;2023-07-31T01:11:09;100317.28;;;19.69;85.67
44457;BME280;30159;49.316;8.558;2023-07-31T01:13:38;100326.66;;;19.68;87.47
44457;BME280;30159;49.316;8.558;2023-07-31T01:16:05;100325.16;;;19.71;85.86
44457;BME280;30159;49.316;8.558;2023-07-31T01:18:32;100322.09;;;19.72;85.00
44457;BME280;30159;49.316;8.558;2023-07-31T01:21:06;100326.75;;;19.72;85.92
44457;BME280;30159;49.316;8.558;2023-07-31T01:24:17;100322.75;;;19.69;85.56
44457;BME280;30159;49.316;8.558;2023-07-31T01:26:49;100318.63;;;19.63;86.23
44457;BME280;30159;49.316;8.558;2023-07-31T01:29:24;100313.97;;;19.64;85.52
44457;BME280;30159;49.316;8.558;2023-07-31T01:31:55;100315.44;;;19.61;85.71
44457;BME280;30159;49.316;8.558;2023-07-31T01:34:22;100300.97;;;19.61;86.57
44457;BME280;30159;49.316;8.558;2023-07-31T01:36:49;100293.66;;;19.65;86.09
44457;BME280;30159;49.316;8.558;2023-07-31T01:39:16;100294.47;;;19.65;86.22
44457;BME280;30159;49.316;8.558;2023-07-31T01:41:42;100308.72;;;19.71;86.30
44457;BME280;30159;49.316;8.558;2023-07-31T01:44:10;100302.94;;;19.72;86.71
44457;BME280;30159;49.316;8.558;2023-07-31T01:46:37;100306.22;;;19.78;85.68
44457;BME280;30159;49.316;8.558;2023-07-31T01:49:03;100298.56;;;19.71;87.18
44457;BME280;30159;49.316;8.558;2023-07-31T01:51:31;100289.56;;;19.71;86.50
44457;BME280;30159;49.316;8.558;2023-07-31T01:53:59;100298.13;;;19.82;86.93
44457;BME280;30159;49.316;8.558;2023-07-31T01:56:25;100297.31;;;19.81;86.10
44457;BME280;30159;49.316;8.558;2023-07-31T01:58:52;100297.44;;;19.85;85.04
44457;BME280;30159;49.316;8.558;2023-07-31T02:01:20;100295.50;;;19.73;84.55
44457;BME280;30159;49.316;8.558;2023-07-31T02:03:47;100296.63;;;19.59;85.61
44457;BME280;30159;49.316;8.558;2023-07-31T02:06:13;100287.06;;;19.66;85.52
44457;BME280;30159;49.316;8.558;2023-07-31T02:08:40;100292.78;;;19.73;85.88
44457;BME280;30159;49.316;8.558;2023-07-31T02:11:06;100305.66;;;19.72;85.98
44457;BME280;30159;49.316;8.558;2023-07-31T02:13:33;100275.41;;;19.81;85.72
44457;BME280;30159;49.316;8.558;2023-07-31T02:15:59;100273.13;;;19.83;85.87
44457;BME280;30159;49.316;8.558;2023-07-31T02:18:27;100270.84;;;19.85;85.47
44457;BME280;30159;49.316;8.558;2023-07-31T02:20:54;100276.56;;;19.80;84.87
44457;BME280;30159;49.316;8.558;2023-07-31T02:23:21;100277.59;;;19.75;86.19
44457;BME280;30159;49.316;8.558;2023-07-31T02:25:48;100265.88;;;19.75;86.53
44457;BME280;30159;49.316;8.558;2023-07-31T02:28:14;100265.28;;;19.69;86.93
44457;BME280;30159;49.316;8.558;2023-07-31T02:30:44;100264.50;;;19.69;87.38
44457;BME280;30159;49.316;8.558;2023-07-31T02:33:10;100266.97;;;19.62;88.58
44457;BME280;30159;49.316;8.558;2023-07-31T02:35:38;100260.81;;;19.65;87.75
44457;BME280;30159;49.316;8.558;2023-07-31T02:38:05;100264.47;;;19.56;87.41
44457;BME280;30159;49.316;8.558;2023-07-31T02:40:31;100264.47;;;19.56;87.29
44457;BME280;30159;49.316;8.558;2023-07-31T02:42:58;100258.44;;;19.51;88.00
44457;BME280;30159;49.316;8.558;2023-07-31T02:45:24;100256.72;;;19.58;87.09
44457;BME280;30159;49.316;8.558;2023-07-31T02:47:51;100262.41;;;19.66;87.38
44457;BME280;30159;49.316;8.558;2023-07-31T02:50:18;100254.66;;;19.68;88.44
44457;BME280;30159;49.316;8.558;2023-07-31T02:52:46;100262.75;;;19.64;86.92
44457;BME280;30159;49.316;8.558;2023-07-31T02:55:12;100258.44;;;19.63;88.60
44457;BME280;30159;49.316;8.558;2023-07-31T02:57:39;100255.13;;;19.57;88.28
44457;BME280;30159;49.316;8.558;2023-07-31T03:00:06;100105.19;;;18.49;88.23
44457;BME280;30159;49.316;8.558;2023-07-31T03:02:34;100262.66;;;19.61;87.85
44457;BME280;30159;49.316;8.558;2023-07-31T03:05:01;100258.56;;;19.54;89.28
44457;BME280;30159;49.316;8.558;2023-07-31T03:07:28;100257.19;;;19.48;86.77
44457;BME280;30159;49.316;8.558;2023-07-31T03:09:56;100252.50;;;19.36;87.93
44457;BME280;30159;49.316;8.558;2023-07-31T03:12:23;100243.06;;;19.22;88.69
44457;BME280;30159;49.316;8.558;2023-07-31T03:14:50;100258.69;;;19.21;89.07
44457;BME280;30159;49.316;8.558;2023-07-31T03:17:16;100252.84;;;19.10;89.11
44457;BME280;30159;49.316;8.558;2023-07-31T03:19:43;100254.56;;;19.03;91.71
44457;BME280;30159;49.316;8.558;2023-07-31T03:22:10;100248.16;;;18.99;90.06
44457;BME280;30159;49.316;8.558;2023-07-31T03:24:37;100255.88;;;18.84;90.41
44457;BME280;30159;49.316;8.558;2023-07-31T03:27:05;100262.16;;;18.85;90.04
44457;BME280;30159;49.316;8.558;2023-07-31T03:29:32;100256.34;;;18.86;90.75
44457;BME280;30159;49.316;8.558;2023-07-31T03:31:59;100260.91;;;18.94;90.36
44457;BME280;30159;49.316;8.558;2023-07-31T03:34:26;100254.97;;;18.92;90.86
44457;BME280;30159;49.316;8.558;2023-07-31T03:36:52;100249.88;;;18.91;92.31
44457;BME280;30159;49.316;8.558;2023-07-31T03:39:19;100252.59;;;18.91;91.30
44457;BME280;30159;49.316;8.558;2023-07-31T03:41:45;100241.44;;;18.84;91.63
44457;BME280;30159;49.316;8.558;2023-07-31T03:44:13;100251.22;;;18.85;91.71
44457;BME280;30159;49.316;8.558;2023-07-31T03:46:40;100253.03;;;18.81;93.39
44457;BME280;30159;49.316;8.558;2023-07-31T03:49:07;100245.00;;;18.75;93.30
44457;BME280;30159;49.316;8.558;2023-07-31T03:51:33;100246.03;;;18.71;93.70
44457;BME280;30159;49.316;8.558;2023-07-31T03:54:00;100240.44;;;18.67;94.49
44457;BME280;30159;49.316;8.558;2023-07-31T03:56:26;100235.88;;;18.71;95.22
44457;BME280;30159;49.316;8.558;2023-07-31T03:58:53;100239.25;;;18.77;94.74
44457;BME280;30159;49.316;8.558;2023-07-31T04:01:21;100245.00;;;18.75;94.43
44457;BME280;30159;49.316;8.558;2023-07-31T04:03:47;100244.97;;;18.84;94.99
44457;BME280;30159;49.316;8.558;2023-07-31T04:06:14;100245.97;;;18.92;93.43
44457;BME280;30159;49.316;8.558;2023-07-31T04:08:43;100251.44;;;18.92;93.14
44457;BME280;30159;49.316;8.558;2023-07-31T04:11:10;100260.34;;;19.01;92.13
44457;BME280;30159;49.316;8.558;2023-07-31T04:13:36;100247.84;;;19.00;92.53
44457;BME280;30159;49.316;8.558;2023-07-31T04:16:03;100251.69;;;18.99;91.86
44457;BME280;30159;49.316;8.558;2023-07-31T04:18:31;100202.41;;;18.62;92.65
44457;BME280;30159;49.316;8.558;2023-07-31T04:20:58;100248.06;;;19.07;91.91
44457;BME280;30159;49.316;8.558;2023-07-31T04:23:26;100269.38;;;19.14;90.91
44457;BME280;30159;49.316;8.558;2023-07-31T04:25:53;100250.34;;;19.05;91.19
44457;BME280;30159;49.316;8.558;2023-07-31T04:28:19;100253.53;;;19.07;90.90
44457;BME280;30159;49.316;8.558;2023-07-31T04:30:46;100245.09;;;19.12;91.08
44457;BME280;30159;49.316;8.558;2023-07-31T04:33:13;100241.56;;;19.12;90.84
44457;BME280;30159;49.316;8.558;2023-07-31T04:35:41;100230.41;;;19.17;91.91
44457;BME280;30159;49.316;8.558;2023-07-31T04:38:07;100234.38;;;19.32;90.07
44457;BME280;30159;49.316;8.558;2023-07-31T04:40:34;100239.16;;;19.23;90.35
44457;BME280;30159;49.316;8.558;2023-07-31T04:43:01;100242.50;;;19.28;90.17
44457;BME280;30159;49.316;8.558;2023-07-31T04:45:27;100235.53;;;19.31;90.35
44457;BME280;30159;49.316;8.558;2023-07-31T04:47:54;100206.81;;;19.12;90.26
44457;BME280;30159;49.316;8.558;2023-07-31T04:50:20;100235.19;;;19.45;88.70
44457;BME280;30159;49.316;8.558;2023-07-31T04:52:48;100240.31;;;19.58;89.05
44457;BME280;30159;49.316;8.558;2023-07-31T04:55:15;100235.84;;;19.66;89.35
44457;BME280;30159;49.316;8.558;2023-07-31T04:57:41;100240.88;;;19.76;88.85
44457;BME280;30159;49.316;8.558;2023-07-31T05:00:09;100244.19;;;19.82;87.67
44457;BME280;30159;49.316;8.558;2023-07-31T05:02:35;100240.19;;;19.79;86.83
44457;BME280;30159;49.316;8.558;2023-07-31T05:05:02;100091.22;;;18.87;86.88
44457;BME280;30159;49.316;8.558;2023-07-31T05:07:29;100240.53;;;19.78;87.08
44457;BME280;30159;49.316;8.558;2023-07-31T05:09:57;100240.03;;;19.88;87.74
44457;BME280;30159;49.316;8.558;2023-07-31T05:12:23;100242.34;;;19.86;86.47
44457;BME280;30159;49.316;8.558;2023-07-31T05:14:50;100239.38;;;19.91;87.05
44457;BME280;30159;49.316;8.558;2023-07-31T05:17:17;100101.56;;;19.06;87.07
44457;BME280;30159;49.316;8.558;2023-07-31T05:19:43;100233.06;;;20.03;86.68
44457;BME280;30159;49.316;8.558;2023-07-31T05:22:10;100231.88;;;20.16;87.52
44457;BME280;30159;49.316;8.558;2023-07-31T05:24:36;100234.19;;;20.30;85.60
44457;BME280;30159;49.316;8.558;2023-07-31T05:27:05;100236.78;;;20.39;85.44
44457;BME280;30159;49.316;8.558;2023-07-31T05:29:32;100238.22;;;20.49;85.52
44457;BME280;30159;49.316;8.558;2023-07-31T05:31:58;100228.09;;;20.49;84.79
44457;BME280;30159;49.316;8.558;2023-07-31T05:34:25;100234.16;;;20.42;85.07
44457;BME280;30159;49.316;8.558;2023-07-31T05:36:52;100231.03;;;20.28;85.16
44457;BME280;30159;49.316;8.558;2023-07-31T05:39:18;100238.28;;;20.36;85.30
44457;BME280;30159;49.316;8.558;2023-07-31T05:41:45;100227.31;;;20.36;85.33
44457;BME280;30159;49.316;8.558;2023-07-31T05:44:13;100230.56;;;20.26;86.40
44457;BME280;30159;49.316;8.558;2023-07-31T05:46:39;100232.06;;;19.95;88.07
44457;BME280;30159;49.316;8.558;2023-07-31T05:49:06;100233.06;;;20.03;87.82
44457;BME280;30159;49.316;8.558;2023-07-31T05:51:33;100230.59;;;20.14;88.11
44457;BME280;30159;49.316;8.558;2023-07-31T05:54:00;100231.06;;;20.16;88.21
44457;BME280;30159;49.316;8.558;2023-07-31T05:56:26;100224.00;;;20.15;88.31
44457;BME280;30159;49.316;8.558;2023-07-31T05:58:53;100232.66;;;20.17;87.29
44457;BME280;30159;49.316;8.558;2023-07-31T06:01:21;100081.47;;;19.27;87.35
44457;BME280;30159;49.316;8.558;2023-07-31T06:03:47;100236.44;;;20.40;85.97
44457;BME280;30159;49.316;8.558;2023-07-31T06:06:14;100225.63;;;20.60;85.46
44457;BME280;30159;49.316;8.558;2023-07-31T06:08:40;100232.63;;;20.57;85.40
44457;BME280;30159;49.316;8.558;2023-07-31T06:11:07;100227.06;;;20.70;84.41
44457;BME280;30159;49.316;8.558;2023-07-31T06:13:34;100229.00;;;20.69;84.77
44457;BME280;30159;49.316;8.558;2023-07-31T06:16:01;100223.00;;;20.63;85.50
44457;BME280;30159;49.316;8.558;2023-07-31T06:18:31;100222.31;;;20.82;84.50
44457;BME280;30159;49.316;8.558;2023-07-31T06:20:58;100217.53;;;20.95;84.69
44457;BME280;30159;49.316;8.558;2023-07-31T06:23:25;100212.59;;;21.01;83.64
44457;BME280;30159;49.316;8.558;2023-07-31T06:25:51;100211.97;;;20.92;83.76
44457;BME280;30159;49.316;8.558;2023-07-31T06:28:18;100226.63;;;20.99;83.87
44457;BME280;30159;49.316;8.558;2023-07-31T06:30:44;100217.63;;;20.99;82.21
44457;BME280;30159;49.316;8.558;2023-07-31T06:33:11;100217.34;;;21.04;81.50
44457;BME280;30159;49.316;8.558;2023-07-31T06:35:39;100058.31;;;19.77;82.88
44457;BME280;30159;49.316;8.558;2023-07-31T06:38:05;100215.66;;;20.83;82.21
44457;BME280;30159;49.316;8.558;2023-07-31T06:40:32;100220.72;;;20.97;82.87
44457;BME280;30159;49.316;8.558;2023-07-31T06:42:59;100209.75;;;21.13;83.00
44457;BME280;30159;49.316;8.558;2023-07-31T06:45:31;100196.75;;;20.94;83.57
44457;BME280;30159;49.316;8.558;2023-07-31T06:47:58;100208.78;;;21.21;83.48
44457;BME280;30159;49.316;8.558;2023-07-31T06:50:26;100205.63;;;21.55;81.63
44457;BME280;30159;49.316;8.558;2023-07-31T06:52:57;100205.88;;;21.65;80.41
44457;BME280;30159;49.316;8.558;2023-07-31T06:55:24;100206.03;;;21.92;79.21
44457;BME280;30159;49.316;8.558;2023-07-31T06:57:52;100207.75;;;21.81;78.49
44457;BME280;30159;49.316;8.558;2023-07-31T07:00:20;100204.66;;;21.82;78.40
44457;BME280;30159;49.316;8.558;2023-07-31T07:02:48;100206.38;;;21.71;78.87
44457;BME280;30159;49.316;8.558;2023-07-31T07:05:15;100207.50;;;21.51;80.14
44457;BME280;30159;49.316;8.558;2023-07-31T07:07:43;100064.81;;;20.32;80.21
44457;BME280;30159;49.316;8.558;2023-07-31T07:10:11;100207.94;;;21.53;81.25
44457;BME280;30159;49.316;8.558;2023-07-31T07:12:37;100200.94;;;21.55;80.25
44457;BME280;30159;49.316;8.558;2023-07-31T07:15:05;100190.53;;;21.64;80.47
44457;BME280;30159;49.316;8.558;2023-07-31T07:17:32;100195.91;;;22.16;78.47
44457;BME280;30159;49.316;8.558;2023-07-31T07:19:58;100198.75;;;22.62;77.56
44457;BME280;30159;49.316;8.558;2023-07-31T07:22:26;100185.88;;;22.66;76.03
44457;BME280;30159;49.316;8.558;2023-07-31T07:24:53;100207.72;;;22.59;75.54
44457;BME280;30159;49.316;8.558;2023-07-31T07:27:23;100208.03;;;22.54;75.86
44457;BME280;30159;49.316;8.558;2023-07-31T07:29:50;100188.69;;;22.27;76.96
44457;BME280;30159;49.316;8.558;2023-07-31T07:32:17;100184.91;;;22.16;77.34
44457;BME280;30159;49.316;8.558;2023-07-31T07:34:44;100199.75;;;22.30;78.31
44457;BME280;30159;49.316;8.558;2023-07-31T07:37:11;100208.69;;;22.70;77.47
44457;BME280;30159;49.316;8.558;2023-07-31T07:39:38;100200.59;;;23.00;74.66
44457;BME280;30159;49.316;8.558;2023-07-31T07:42:04;100198.44;;;22.67;75.76
44457;BME280;30159;49.316;8.558;2023-07-31T07:44:32;100190.25;;;22.47;76.04
44457;BME280;30159;49.316;8.558;2023-07-31T07:46:59;100191.47;;;22.50;76.74
44457;BME280;30159;49.316;8.558;2023-07-31T07:49:26;100190.94;;;22.64;76.17
44457;BME280;30159;49.316;8.558;2023-07-31T07:51:52;100189.53;;;22.73;75.52
44457;BME280;30159;49.316;8.558;2023-07-31T07:54:19;100195.28;;;22.65;76.15
44457;BME280;30159;49.316;8.558;2023-07-31T07:56:46;100197.53;;;22.82;75.42
44457;BME280;30159;49.316;8.558;2023-07-31T07:59:13;100198.50;;;22.93;74.22
44457;BME280;30159;49.316;8.558;2023-07-31T08:01:41;100199.75;;;22.96;74.38
44457;BME280;30159;49.316;8.558;2023-07-31T08:04:07;100191.94;;;23.25;73.79
44457;BME280;30159;49.316;8.558;2023-07-31T08:06:34;100194.53;;;23.41;74.23
44457;BME280;30159;49.316;8.558;2023-07-31T08:09:01;100207.13;;;23.68;72.74
44457;BME280;30159;49.316;8.558;2023-07-31T08:11:31;100191.38;;;23.69;73.34
44457;BME280;30159;49.316;8.558;2023-07-31T08:13:57;100192.03;;;23.59;71.46
44457;BME280;30159;49.316;8.558;2023-07-31T08:16:24;100188.56;;;23.65;72.31
44457;BME280;30159;49.316;8.558;2023-07-31T08:18:52;100190.28;;;23.73;72.25
44457;BME280;30159;49.316;8.558;2023-07-31T08:21:18;100192.28;;;23.76;70.85
44457;BME280;30159;49.316;8.558;2023-07-31T08:23:45;100176.06;;;23.71;72.59
44457;BME280;30159;49.316;8.558;2023-07-31T08:26:14;100177.56;;;23.65;71.13
44457;BME280;30159;49.316;8.558;2023-07-31T08:28:41;100177.03;;;23.56;71.59
44457;BME280;30159;49.316;8.558;2023-07-31T08:31:08;100170.00;;;23.59;71.63
44457;BME280;30159;49.316;8.558;2023-07-31T08:33:34;100166.34;;;23.51;72.05
44457;BME280;30159;49.316;8.558;2023-07-31T08:36:03;100153.78;;;23.50;72.10
44457;BME280;30159;49.316;8.558;2023-07-31T08:38:30;100156.66;;;23.61;71.92
44457;BME280;30159;49.316;8.558;2023-07-31T08:40:56;100158.19;;;23.85;71.69
44457;BME280;30159;49.316;8.558;2023-07-31T08:43:25;100146.84;;;23.93;70.15
44457;BME280;30159;49.316;8.558;2023-07-31T08:45:52;100154.22;;;24.19;69.09
44457;BME280;30159;49.316;8.558;2023-07-31T08:48:20;100136.28;;;24.36;69.55
44457;BME280;30159;49.316;8.558;2023-07-31T08:50:47;100134.78;;;24.46;68.27
44457;BME280;30159;49.316;8.558;2023-07-31T08:53:15;100133.75;;;24.21;69.47
44457;BME280;30159;49.316;8.558;2023-07-31T08:55:43;100128.94;;;24.48;68.76
44457;BME280;30159;49.316;8.558;2023-07-31T08:58:12;100137.06;;;24.78;67.43
44457;BME280;30159;49.316;8.558;2023-07-31T09:00:39;100126.41;;;24.80;66.39
44457;BME280;30159;49.316;8.558;2023-07-31T09:03:09;100146.06;;;24.71;66.61
44457;BME280;30159;49.316;8.558;2023-07-31T09:05:36;100121.34;;;24.41;68.62
44457;BME280;30159;49.316;8.558;2023-07-31T09:08:07;100139.47;;;24.42;68.94
44457;BME280;30159;49.316;8.558;2023-07-31T09:10:40;100114.69;;;24.46;68.39
44457;BME280;30159;49.316;8.558;2023-07-31T09:13:07;100109.69;;;24.58;68.21
44457;BME280;30159;49.316;8.558;2023-07-31T09:15:35;100107.41;;;24.64;67.73
44457;BME280;30159;49.316;8.558;2023-07-31T09:18:03;100113.66;;;24.57;67.19
44457;BME280;30159;49.316;8.558;2023-07-31T09:20:30;100108.06;;;24.50;68.87
44457;BME280;30159;49.316;8.558;2023-07-31T09:23:05;100097.03;;;24.50;69.45
44457;BME280;30159;49.316;8.558;2023-07-31T09:25:32;100095.59;;;24.71;68.26
44457;BME280;30159;49.316;8.558;2023-07-31T09:28:00;100111.19;;;24.49;69.66
44457;BME280;30159;49.316;8.558;2023-07-31T09:30:27;100103.91;;;24.30;69.57
44457;BME280;30159;49.316;8.558;2023-07-31T09:33:00;100107.09;;;24.32;69.79
44457;BME280;30159;49.316;8.558;2023-07-31T09:35:29;99974.69;;;23.39;70.28
44457;BME280;30159;49.316;8.558;2023-07-31T09:37:58;100097.75;;;24.44;70.18
44457;BME280;30159;49.316;8.558;2023-07-31T09:40:26;100085.34;;;24.64;69.42
44457;BME280;30159;49.316;8.558;2023-07-31T09:42:54;100090.22;;;24.89;67.98
44457;BME280;30159;49.316;8.558;2023-07-31T09:45:23;100076.72;;;24.73;69.45
44457;BME280;30159;49.316;8.558;2023-07-31T09:47:50;100075.91;;;24.72;68.60
44457;BME280;30159;49.316;8.558;2023-07-31T09:50:17;100079.63;;;24.98;68.23
44457;BME280;30159;49.316;8.558;2023-07-31T09:52:44;100069.13;;;25.21;66.41
44457;BME280;30159;49.316;8.558;2023-07-31T09:55:10;100030.53;;;25.25;66.74
44457;BME280;30159;49.316;8.558;2023-07-31T09:57:39;100063.78;;;25.68;66.68
44457;BME280;30159;49.316;8.558;2023-07-31T10:00:07;100059.94;;;25.94;65.80
44457;BME280;30159;49.316;8.558;2023-07-31T10:02:37;100047.31;;;25.97;64.99
44457;BME280;30159;49.316;8.558;2023-07-31T10:05:05;100066.28;;;26.23;64.84
44457;BME280;30159;49.316;8.558;2023-07-31T10:07:36;100054.81;;;26.43;63.90
44457;BME280;30159;49.316;8.558;2023-07-31T10:10:04;100067.88;;;26.17;62.77
44457;BME280;30159;49.316;8.558;2023-07-31T10:12:33;100020.81;;;25.74;63.04
44457;BME280;30159;49.316;8.558;2023-07-31T10:15:00;100062.31;;;26.03;63.57
44457;BME280;30159;49.316;8.558;2023-07-31T10:17:29;100052.47;;;26.02;64.17
44457;BME280;30159;49.316;8.558;2023-07-31T10:19:58;100047.72;;;26.31;63.86
44457;BME280;30159;49.316;8.558;2023-07-31T10:22:26;100053.66;;;26.44;63.82
44457;BME280;30159;49.316;8.558;2023-07-31T10:24:55;100061.56;;;26.56;61.52
44457;BME280;30159;49.316;8.558;2023-07-31T10:27:24;99878.72;;;25.50;61.95
44457;BME280;30159;49.316;8.558;2023-07-31T10:29:52;100044.97;;;26.49;62.14
44457;BME280;30159;49.316;8.558;2023-07-31T10:32:19;100038.25;;;26.28;62.95
44457;BME280;30159;49.316;8.558;2023-07-31T10:34:47;100049.28;;;26.43;62.05
44457;BME280;30159;49.316;8.558;2023-07-31T10:37:28;100040.63;;;26.23;62.46
44457;BME280;30159;49.316;8.558;2023-07-31T10:39:59;99919.63;;;25.12;64.72
44457;BME280;30159;49.316;8.558;2023-07-31T10:42:31;100037.84;;;25.91;63.24
44457;BME280;30159;49.316;8.558;2023-07-31T10:44:59;100012.56;;;25.89;63.17
44457;BME280;30159;49.316;8.558;2023-07-31T10:47:26;100037.06;;;26.30;63.38
44457;BME280;30159;49.316;8.558;2023-07-31T10:49:52;100028.75;;;26.51;62.54
44457;BME280;30159;49.316;8.558;2023-07-31T10:52:20;100024.41;;;26.50;62.04
44457;BME280;30159;49.316;8.558;2023-07-31T10:55:13;100035.47;;;26.46;60.77
44457;BME280;30159;49.316;8.558;2023-07-31T10:57:44;100036.28;;;26.18;62.32
44457;BME280;30159;49.316;8.558;2023-07-31T11:00:18;100025.53;;;25.84;63.95
44457;BME280;30159;49.316;8.558;2023-07-31T11:02:56;100033.50;;;26.11;62.41
44457;BME280;30159;49.316;8.558;2023-07-31T11:05:40;100037.06;;;26.12;63.72
44457;BME280;30159;49.316;8.558;2023-07-31T11:08:11;100037.78;;;25.76;62.41
44457;BME280;30159;49.316;8.558;2023-07-31T11:10:39;100033.41;;;25.75;64.75
44457;BME280;30159;49.316;8.558;2023-07-31T11:13:05;100031.50;;;25.94;63.87
44457;BME280;30159;49.316;8.558;2023-07-31T11:15:32;100011.78;;;26.06;64.26
44457;BME280;30159;49.316;8.558;2023-07-31T11:18:00;100015.72;;;26.12;63.72
44457;BME280;30159;49.316;8.558;2023-07-31T11:20:29;100014.09;;;25.79;63.38
44457;BME280;30159;49.316;8.558;2023-07-31T11:22:58;100004.66;;;25.91;62.80
44457;BME280;30159;49.316;8.558;2023-07-31T11:25:25;99999.94;;;25.98;63.07
44457;BME280;30159;49.316;8.558;2023-07-31T11:27:53;99998.34;;;25.97;63.77
44457;BME280;30159;49.316;8.558;2023-07-31T11:30:21;99999.94;;;26.16;63.12
44457;BME280;30159;49.316;8.558;2023-07-31T11:32:48;99989.28;;;26.07;63.34
44457;BME280;30159;49.316;8.558;2023-07-31T11:35:15;100000.25;;;25.75;64.17
44457;BME280;30159;49.316;8.558;2023-07-31T11:37:42;99886.75;;;24.64;65.13
44457;BME280;30159;49.316;8.558;2023-07-31T11:40:10;100001.38;;;25.35;65.10
44457;BME280;30159;49.316;8.558;2023-07-31T11:42:37;100004.53;;;25.48;65.58
44457;BME280;30159;49.316;8.558;2023-07-31T11:45:06;99991.22;;;26.03;65.05
44457;BME280;30159;49.316;8.558;2023-07-31T11:47:33;99995.59;;;26.30;64.04
44457;BME280;30159;49.316;8.558;2023-07-31T11:50:01;99988.09;;;26.30;64.52
44457;BME280;30159;49.316;8.558;2023-07-31T11:52:30;99975.78;;;26.45;63.41
44457;BME280;30159;49.316;8.558;2023-07-31T11:54:59;99979.69;;;26.84;62.73
44457;BME280;30159;49.316;8.558;2023-07-31T11:57:29;99979.72;;;26.73;62.77
44457;BME280;30159;49.316;8.558;2023-07-31T11:59:56;99973.41;;;26.73;63.37
44457;BME280;30159;49.316;8.558;2023-07-31T12:02:24;99976.88;;;27.02;63.10
44457;BME280;30159;49.316;8.558;2023-07-31T12:04:51;99966.25;;;26.86;63.37
44457;BME280;30159;49.316;8.558;2023-07-31T12:07:18;99964.34;;;26.54;64.23
44457;BME280;30159;49.316;8.558;2023-07-31T12:09:52;99962.44;;;25.90;65.64
44457;BME280;30159;49.316;8.558;2023-07-31T12:12:23;99955.31;;;25.96;65.57
44457;BME280;30159;49.316;8.558;2023-07-31T12:14:50;99948.56;;;25.72;65.28
44457;BME280;30159;49.316;8.558;2023-07-31T12:17:17;99953.72;;;25.67;66.41
44457;BME280;30159;49.316;8.558;2023-07-31T12:19:48;99950.16;;;26.20;66.80
44457;BME280;30159;49.316;8.558;2023-07-31T12:22:15;99944.56;;;26.66;64.89
44457;BME280;30159;49.316;8.558;2023-07-31T12:24:43;99836.41;;;26.21;62.64
44457;BME280;30159;49.316;8.558;2023-07-31T12:27:11;99951.78;;;27.34;62.55
44457;BME280;30159;49.316;8.558;2023-07-31T12:29:38;99878.09;;;27.47;61.33
44457;BME280;30159;49.316;8.558;2023-07-31T12:32:19;99934.41;;;27.93;60.37
44457;BME280;30159;49.316;8.558;2023-07-31T12:34:47;99931.06;;;28.09;60.09
44457;BME280;30159;49.316;8.558;2023-07-31T12:37:14;99933.97;;;27.94;59.84
44457;BME280;30159;49.316;8.558;2023-07-31T12:39:40;99918.44;;;27.56;60.96
44457;BME280;30159;49.316;8.558;2023-07-31T12:42:07;99929.00;;;27.05;61.82
44457;BME280;30159;49.316;8.558;2023-07-31T12:44:34;99930.91;;;27.19;61.63
44457;BME280;30159;49.316;8.558;2023-07-31T12:47:00;99923.19;;;27.51;61.33
44457;BME280;30159;49.316;8.558;2023-07-31T12:49:27;99925.06;;;26.99;61.74
44457;BME280;30159;49.316;8.558;2023-07-31T12:51:55;99922.34;;;26.84;63.92
44457;BME280;30159;49.316;8.558;2023-07-31T12:54:21;99922.88;;;26.40;62.59